Terminal Aerodrome Forecast
Issued by NWS Corpus Christi, TX

Home | Current Version | Previous Version | Text Only | Print | Product List | Glossary On
Versions: 1 2 3 4 5 6 7 8 9 10 11 12 13 14
000
FTUS44 KCRP 280500
TAFCRP
TAF
KCRP 280540Z 2806/2906 08010KT P6SM SCT018 BKN120
     FM280900 08010KT P6SM VCSH SCT018 BKN120
     FM281400 09012KT P6SM VCTS BKN025CB BKN120
      TEMPO 2814/2818 VRB15G25KT 4SM TSRA BKN022CB
     FM281800 11015G22KT P6SM BKN035 BKN120
      TEMPO 2818/2822 5SM -TSRA BKN028CB
     FM290000 12008KT P6SM BKN035=

USA.gov is the U.S. government's official web portal to all federal, state and local government web resources and services.